Tropical Cyclones
[Index]
Main Index Home Page Stock Weather Photos Extreme Storms Discussion Storm News and Storm Chasing Reports Tropical Cyclones / Hurricanes / Typhoons Weather Data and Links Wild Fires / Bushfires Weather Observation Techniques Weather Picture Catalogue Tornado Pictures and Reports Stock Video Footage and DVDs for sale
Season 1972-1973 Tropical Cyclone BEBE Track Map
Season 1972-1973 Summaries: [BoM-AU] [JTWC-AU] [JTWC-SIO] [JTWC-SPAC] [JTWC-SH]
<<- Previous TC | JTWC 1972-1973 Season | Next TC ->>

click for intensity scale information  Lat/long Grid: Show Hide

 Date Labels: Show Hide

Joint Typhoon Warning Centre Cyclone Data

Name: BEBE
Number: 803 / 7301

19 Oct 1972 00:00 UTC to 29 Oct 1972 12:00 UTC

    date/time    lat    long     hPa   cat  kts
1972-10-19 00    7.4   178.5W                             
1972-10-19 06    7.6   178.7W                             
1972-10-19 12    7.8   178.9W                             
1972-10-19 18    7.9   179.0W                             
1972-10-20 00    8.1   179.2W                             
1972-10-20 06    8.3   179.3W                             
1972-10-20 12    8.5   179.5W                             
1972-10-20 18    8.7   179.6W                             
1972-10-21 00    8.9   179.8W                             
1972-10-21 06    9.1   179.9                              
1972-10-21 12    9.4   179.6                              
1972-10-21 18    9.7   179.4                              
1972-10-22 00   10.0   179.3                              
1972-10-22 06   10.6   176.2                              
1972-10-22 12   11.4   173.2                              
1972-10-22 18   12.2   175.3                              
1972-10-23 00   13.1   177.4                              
1972-10-23 06   14.2   177.4                              
1972-10-23 12   15.4   177.4                              
1972-10-23 18   16.5   177.7                              
1972-10-24 00   17.7   178.1                              
1972-10-24 06   18.5   178.6                              
1972-10-24 12   19.0   179.1                              
1972-10-24 18   19.5   179.5                              
1972-10-25 00   20.0   180.0                              
1972-10-25 06   20.5   179.2W                             
1972-10-25 12   21.0   178.3W                             
1972-10-25 18   22.3   177.4W                             
1972-10-26 00   23.6   176.3W                             
1972-10-26 06   23.8   175.0W                             
1972-10-26 12   24.0   173.7W                             
1972-10-26 18   24.6   172.4W                             
1972-10-27 00   25.5   171.0W                             
1972-10-27 06   26.8   171.8W                             
1972-10-27 12   28.3   172.6W                             
1972-10-27 18   29.9   168.3W                             
1972-10-28 00   31.5   164.0W                             
1972-10-28 06   33.2   162.5W                             
1972-10-28 12   35.0   161.3W                             
1972-10-28 18   36.7   160.3W                             
1972-10-29 00   38.4   159.3W                             
1972-10-29 06   39.9   157.8W                             
1972-10-29 12   41.3   156.0W                             
Winds are 1-min average.

Tropical cyclone tracks developed by Michael Bath using data from the Joint Typhoon Warning Centre Best Tracks and Google Maps.


[Australian Severe Weather index] [Copyright Notice] [Email Contacts] [Search This Site] [Privacy Policy]
Document: tropical_cyclone_bebe.htm Updated: 18 September 2016